Aviation Digital Data Service (ADDS)

Output produced by METARs form (0526 UTC 19 January 2018)
found at http://www.aviationweather.gov/adds/metars/
 
METAR text: RJAA 190500Z VRB02KT 9999 FEW030 BKN050 BKN070 10/M01 Q1018 BECMG 07006KT
Conditions at: RJAA (NARITA INTL , JP) observed 0500 UTC 19 January 2018
Temperature: 10.0°C (50°F)
Dewpoint: -1.0°C (30°F) [RH = 46%]
Pressure (altimeter): 30.06 inches Hg (1018.0 mb)
Winds: variable direction winds at 2 MPH (2 knots; 1.0 m/s)
Visibility: 6 or more miles (10+ km)
Ceiling: 5000 feet AGL
Clouds: few clouds at 3000 feet AGL
broken clouds at 5000 feet AGL
broken clouds at 7000 feet AGL
Weather: no significant weather observed at this time

Forecast for: RJAA (NARITA INTL , JP)
Text: TAF RJAA 190506Z 1906/2012 10007KT 9999 FEW030
Forecast period: 0600 to 0900 UTC 19 January 2018
Forecast type: FROM: standard forecast or significant change
Winds: from the E (100 degrees) at 8 MPH (7 knots; 3.6 m/s)
Visibility: 6 or more miles (10+ km)
Clouds: few clouds at 3000 feet AGL
Weather: no significant weather forecast for this period
Text: BECMG 1909/1911 03005KT
Forecast period: 0900 UTC 19 January 2018 to 1200 UTC 20 January 2018
Forecast type: BECOMING: Conditions expected to become as follows by 1100 UTC 19 January 2018
Winds: from the NNE (30 degrees) at 6 MPH (5 knots; 2.6 m/s)
Visibility: 6 or more miles (10+ km)
Clouds: few clouds at 3000 feet AGL
Weather: no significant weather forecast for this period